Time;durP1;ratioP1;P1;durP2;ratioP2;P2;SDS_P1;SDS_P2;PMS_P1;PMS_P2;Temp;Humidity;BMP_temperature;BMP_pressure;BME280_temperature;BME280_humidity;BME280_pressure;Samples;Min_cycle;Max_cycle;Signal;HPM_P1;HPM_P2
2023/06/11 00:01:50;;;;;;;;;;;;;;;23.22;16.68;102057.47;5043609;28;19925;-71
2023/06/11 00:04:19;;;;;;;;;;;;;;;23.19;16.59;102060.69;5046908;28;19998;-71
2023/06/11 00:06:45;;;;;;;;;;;;;;;23.18;16.48;102062.59;5027748;28;19962;-69
2023/06/11 00:09:10;;;;;;;;;;;;;;;23.13;17.88;102070.69;5049110;28;19924;-68
2023/06/11 00:11:41;;;;;;;;;;;;;;;23.04;16.95;102063.91;5011374;28;19917;-68
2023/06/11 00:14:08;;;;;;;;;;;;;;;22.99;17.28;102072.81;5027880;28;20409;-69
2023/06/11 00:16:34;;;;;;;;;;;;;;;22.98;17.10;102062.09;5043259;28;19912;-69
2023/06/11 00:19:00;;;;;;;;;;;;;;;22.94;17.00;102071.88;5043627;28;19917;-70
2023/06/11 00:21:25;;;;;;;;;;;;;;;22.89;16.94;102071.75;5043247;28;19919;-69
2023/06/11 00:23:50;;;;;;;;;;;;;;;22.81;17.13;102067.44;5043325;28;19923;-68
2023/06/11 00:26:16;;;;;;;;;;;;;;;22.76;17.04;102072.78;5044073;28;20336;-68
2023/06/11 00:28:41;;;;;;;;;;;;;;;22.71;16.95;102070.75;5042334;28;20409;-69
2023/06/11 00:31:06;;;;;;;;;;;;;;;22.67;17.32;102068.72;5044816;28;20348;-67
2023/06/11 00:33:32;;;;;;;;;;;;;;;22.71;17.15;102072.66;5053849;28;20269;-70
2023/06/11 00:35:57;;;;;;;;;;;;;;;22.67;17.12;102066.00;5035954;28;19959;-70
2023/06/11 00:38:22;;;;;;;;;;;;;;;22.64;17.16;102067.31;5053636;28;19917;-70
2023/06/11 00:40:48;;;;;;;;;;;;;;;22.57;17.38;102063.84;5053581;28;19912;-71
2023/06/11 00:43:13;;;;;;;;;;;;;;;22.50;17.51;102068.59;5053206;28;19916;-71
2023/06/11 00:45:39;;;;;;;;;;;;;;;22.49;17.38;102072.38;5053271;28;19917;-70
2023/06/11 00:48:05;;;;;;;;;;;;;;;22.52;17.65;102064.53;5053447;28;19920;-70
2023/06/11 00:50:34;;;;;;;;;;;;;;;22.47;18.60;102069.88;5053508;28;19913;-71
2023/06/11 00:53:00;;;;;;;;;;;;;;;22.41;17.42;102073.53;5053486;28;20003;-71
2023/06/11 00:55:25;;;;;;;;;;;;;;;22.37;17.65;102069.63;5053512;28;19995;-70
2023/06/11 00:57:53;;;;;;;;;;;;;;;22.30;17.77;102061.50;5052024;28;19951;-70
2023/06/11 01:00:20;;;;;;;;;;;;;;;22.26;18.70;102071.25;5053458;28;19912;-71
2023/06/11 01:02:49;;;;;;;;;;;;;;;22.27;18.59;102075.66;5052508;28;19924;-69
2023/06/11 01:05:17;;;;;;;;;;;;;;;22.21;18.84;102069.19;5038646;28;19913;-70
2023/06/11 01:07:50;;;;;;;;;;;;;;;22.11;19.63;102068.88;5053219;28;19978;-70
2023/06/11 01:10:16;;;;;;;;;;;;;;;22.09;18.49;102075.66;5069235;28;19947;-69
2023/06/11 01:12:41;;;;;;;;;;;;;;;22.08;19.17;102079.47;5073269;28;19916;-69
2023/06/11 01:15:13;;;;;;;;;;;;;;;22.02;18.75;102075.75;5055269;28;19918;-68
2023/06/11 01:17:56;;;;;;;;;;;;;;;22.00;18.83;102075.16;5073042;28;19917;-68
2023/06/11 01:20:34;;;;;;;;;;;;;;;21.99;18.81;102084.41;5073223;28;19916;-69
2023/06/11 01:23:15;;;;;;;;;;;;;;;21.99;19.33;102079.78;5072974;28;19920;-69
2023/06/11 01:25:59;;;;;;;;;;;;;;;21.94;18.97;102085.13;5072801;28;20388;-68
2023/06/11 01:28:28;;;;;;;;;;;;;;;21.89;19.34;102084.97;5072824;28;19916;-68
2023/06/11 01:30:57;;;;;;;;;;;;;;;21.81;19.91;102090.75;5072729;28;19952;-68
2023/06/11 01:33:24;;;;;;;;;;;;;;;21.79;19.59;102087.41;5054690;28;19938;-69
2023/06/11 01:35:52;;;;;;;;;;;;;;;21.75;20.21;102087.03;5054528;28;20310;-69
2023/06/11 01:38:17;;;;;;;;;;;;;;;21.79;19.74;102087.41;5072693;28;19966;-70
2023/06/11 01:40:43;;;;;;;;;;;;;;;21.72;19.59;102092.13;5058334;28;20389;-70
2023/06/11 01:43:08;;;;;;;;;;;;;;;21.65;19.79;102100.41;5053008;28;20011;-70
2023/06/11 01:45:34;;;;;;;;;;;;;;;21.60;19.78;102102.97;5052642;28;20250;-70
2023/06/11 01:48:00;;;;;;;;;;;;;;;21.58;19.53;102100.47;5052558;28;19913;-70
2023/06/11 01:50:25;;;;;;;;;;;;;;;21.55;19.95;102097.38;5052114;28;19967;-70
2023/06/11 01:52:51;;;;;;;;;;;;;;;21.51;19.69;102096.97;5052401;28;19920;-70
2023/06/11 01:55:18;;;;;;;;;;;;;;;21.47;20.28;102098.50;5052474;28;20365;-70
2023/06/11 01:57:43;;;;;;;;;;;;;;;21.46;19.93;102100.38;5052167;28;19962;-70
2023/06/11 02:00:10;;;;;;;;;;;;;;;21.46;20.06;102097.66;5052275;28;20369;-70
2023/06/11 02:02:40;;;;;;;;;;;;;;;21.41;19.97;102097.47;5051274;28;19936;-71
2023/06/11 02:05:05;;;;;;;;;;;;;;;21.39;20.86;102099.56;5051743;28;19913;-70
2023/06/11 02:07:31;;;;;;;;;;;;;;;21.38;20.14;102092.47;5052466;28;20323;-70
2023/06/11 02:09:56;;;;;;;;;;;;;;;21.32;20.01;102101.56;5047707;28;20387;-70
2023/06/11 02:12:21;;;;;;;;;;;;;;;21.37;20.19;102104.44;5072360;28;19920;-70
2023/06/11 02:14:47;;;;;;;;;;;;;;;21.35;20.37;102105.75;5072260;28;19939;-70
2023/06/11 02:17:12;;;;;;;;;;;;;;;21.28;20.58;102100.31;5054434;28;19933;-70
2023/06/11 02:19:38;;;;;;;;;;;;;;;21.31;20.73;102110.00;5072386;28;19916;-71
2023/06/11 02:22:03;;;;;;;;;;;;;;;21.35;20.42;102103.00;5072218;28;19913;-70
2023/06/11 02:24:29;;;;;;;;;;;;;;;21.28;20.90;102103.06;5072232;28;19955;-69
2023/06/11 02:26:54;;;;;;;;;;;;;;;21.22;20.85;102117.63;5072189;28;19945;-70
2023/06/11 02:29:19;;;;;;;;;;;;;;;21.22;21.75;102114.91;5072017;28;19917;-70
2023/06/11 02:31:45;;;;;;;;;;;;;;;21.21;20.96;102110.47;5072074;28;20007;-70
2023/06/11 02:34:10;;;;;;;;;;;;;;;21.20;20.77;102112.38;5072149;28;19948;-69
2023/06/11 02:36:36;;;;;;;;;;;;;;;21.20;22.00;102117.84;5060785;28;19916;-69
2023/06/11 02:39:01;;;;;;;;;;;;;;;21.16;21.21;102119.38;5051923;28;19920;-70
2023/06/11 02:41:27;;;;;;;;;;;;;;;21.13;21.40;102114.34;5051841;28;19991;-70
2023/06/11 02:43:52;;;;;;;;;;;;;;;21.10;20.98;102120.28;5050380;28;19912;-70
2023/06/11 02:46:18;;;;;;;;;;;;;;;21.14;21.11;102115.19;5051493;28;20003;-70
2023/06/11 02:48:43;;;;;;;;;;;;;;;21.15;21.51;102114.94;5053786;28;19924;-70
2023/06/11 02:51:08;;;;;;;;;;;;;;;21.15;21.41;102114.94;5054664;28;20366;-70
2023/06/11 02:53:34;;;;;;;;;;;;;;;21.08;21.37;102112.28;5055882;28;19913;-70
2023/06/11 02:55:59;;;;;;;;;;;;;;;21.03;21.46;102114.03;5071057;28;19917;-70
2023/06/11 02:58:24;;;;;;;;;;;;;;;21.05;21.34;102111.91;5055212;28;20314;-69
2023/06/11 03:00:50;;;;;;;;;;;;;;;20.96;22.40;102116.78;5054855;28;19959;-69
2023/06/11 03:03:15;;;;;;;;;;;;;;;20.98;21.63;102114.66;5055353;28;20011;-68
2023/06/11 03:05:40;;;;;;;;;;;;;;;21.00;21.33;102120.75;5055495;28;19917;-70
2023/06/11 03:08:06;;;;;;;;;;;;;;;21.01;21.79;102125.16;5055339;28;19922;-70
2023/06/11 03:10:31;;;;;;;;;;;;;;;21.06;21.52;102110.81;5073271;28;20010;-70
2023/06/11 03:12:56;;;;;;;;;;;;;;;21.01;21.96;102118.88;5074894;28;19913;-69
2023/06/11 03:15:22;;;;;;;;;;;;;;;21.03;22.54;102123.03;5056760;28;19919;-69
2023/06/11 03:17:47;;;;;;;;;;;;;;;21.03;22.16;102123.03;5057188;28;20246;-70
2023/06/11 03:20:12;;;;;;;;;;;;;;;21.01;22.25;102127.91;5074878;28;19912;-69
2023/06/11 03:22:38;;;;;;;;;;;;;;;21.02;22.03;102126.84;5074891;28;20664;-69
2023/06/11 03:25:04;;;;;;;;;;;;;;;21.06;22.00;102132.69;5057322;28;19999;-69
2023/06/11 03:27:29;;;;;;;;;;;;;;;21.07;21.97;102127.00;5075122;28;19920;-68
2023/06/11 03:29:54;;;;;;;;;;;;;;;21.06;22.29;102127.22;5074714;28;19920;-68
2023/06/11 03:32:20;;;;;;;;;;;;;;;21.09;22.19;102121.31;5067459;28;19917;-69
2023/06/11 03:34:45;;;;;;;;;;;;;;;21.08;22.29;102134.16;5054889;28;19912;-69
2023/06/11 03:37:10;;;;;;;;;;;;;;;21.12;22.18;102125.47;5055196;28;19913;-69
2023/06/11 03:39:35;;;;;;;;;;;;;;;21.14;22.04;102132.41;5054791;28;19992;-69
2023/06/11 03:42:01;;;;;;;;;;;;;;;21.14;22.14;102139.78;5054800;28;20278;-69
2023/06/11 03:44:26;;;;;;;;;;;;;;;21.17;22.28;102140.19;5054725;28;19919;-69
2023/06/11 03:46:51;;;;;;;;;;;;;;;21.19;22.56;102134.47;5054539;28;19912;-68
2023/06/11 03:49:17;;;;;;;;;;;;;;;21.19;22.53;102134.47;5053387;28;20324;-68
2023/06/11 03:51:42;;;;;;;;;;;;;;;21.23;22.54;102142.00;5054576;28;19912;-68
2023/06/11 03:54:07;;;;;;;;;;;;;;;21.28;22.10;102122.19;5054726;28;20008;-68
2023/06/11 03:56:32;;;;;;;;;;;;;;;21.30;22.53;102128.25;5054548;28;19913;-68
2023/06/11 03:58:58;;;;;;;;;;;;;;;21.36;22.59;102127.38;5054025;28;20366;-68
2023/06/11 04:01:23;;;;;;;;;;;;;;;21.34;22.29;102128.66;5054032;28;20336;-68
2023/06/11 04:03:49;;;;;;;;;;;;;;;21.39;22.33;102135.13;5054299;28;20328;-69
2023/06/11 04:06:15;;;;;;;;;;;;;;;21.39;22.56;102126.09;5054420;28;19940;-69
2023/06/11 04:08:40;;;;;;;;;;;;;;;21.48;22.38;102130.22;5039822;28;19927;-69
2023/06/11 04:11:06;;;;;;;;;;;;;;;21.44;22.17;102127.09;5056823;28;20437;-69
2023/06/11 04:13:31;;;;;;;;;;;;;;;21.46;23.28;102124.16;5074074;28;20011;-69
2023/06/11 04:15:56;;;;;;;;;;;;;;;21.50;22.94;102130.84;5073919;28;19920;-69
2023/06/11 04:18:22;;;;;;;;;;;;;;;21.52;23.41;102123.25;5073964;28;20463;-69
2023/06/11 04:20:47;;;;;;;;;;;;;;;21.54;23.01;102129.31;5056176;28;20541;-69
2023/06/11 04:23:12;;;;;;;;;;;;;;;21.60;23.20;102122.09;5074028;28;19913;-70
2023/06/11 04:25:40;;;;;;;;;;;;;;;21.61;23.00;102121.06;5073957;28;19920;-69
2023/06/11 04:28:05;;;;;;;;;;;;;;;21.63;22.93;102119.75;5070957;28;20047;-68
2023/06/11 04:30:34;;;;;;;;;;;;;;;21.67;22.60;102122.88;5053753;28;20363;-68
2023/06/11 04:33:03;;;;;;;;;;;;;;;21.71;23.00;102123.25;5053659;28;19913;-68
2023/06/11 04:35:28;;;;;;;;;;;;;;;21.76;22.79;102120.69;5053775;28;19913;-69
2023/06/11 04:37:55;;;;;;;;;;;;;;;21.79;22.38;102126.53;5053705;28;20004;-69
2023/06/11 04:40:23;;;;;;;;;;;;;;;21.80;22.33;102128.22;5053535;28;19941;-68
2023/06/11 04:42:49;;;;;;;;;;;;;;;21.80;22.69;102127.34;5053412;28;19956;-69
2023/06/11 04:45:18;;;;;;;;;;;;;;;21.83;22.57;102126.91;5052247;28;20005;-68
2023/06/11 04:47:44;;;;;;;;;;;;;;;21.83;22.47;102125.00;5053427;28;20428;-68
2023/06/11 04:50:09;;;;;;;;;;;;;;;21.84;22.23;102125.84;5053205;28;19952;-69
2023/06/11 04:52:42;;;;;;;;;;;;;;;21.88;22.24;102120.75;5053404;28;20369;-68
2023/06/11 04:55:09;;;;;;;;;;;;;;;21.94;21.94;102126.16;5035522;28;19912;-68
2023/06/11 04:57:36;;;;;;;;;;;;;;;22.01;22.24;102121.44;5053074;28;19924;-68
2023/06/11 05:00:05;;;;;;;;;;;;;;;22.06;22.02;102123.47;5035339;28;19917;-69
2023/06/11 05:02:32;;;;;;;;;;;;;;;22.11;21.57;102125.53;5052333;28;20408;-69
2023/06/11 05:04:57;;;;;;;;;;;;;;;22.11;21.82;102118.16;5052855;28;19920;-69
2023/06/11 05:07:24;;;;;;;;;;;;;;;22.12;21.39;102116.22;5052967;28;19913;-69
2023/06/11 05:09:49;;;;;;;;;;;;;;;22.14;21.88;102116.84;5065244;28;19966;-70
2023/06/11 05:12:15;;;;;;;;;;;;;;;22.18;21.88;102116.16;5072417;28;20305;-70
2023/06/11 05:14:40;;;;;;;;;;;;;;;22.22;21.51;102120.09;5072737;28;20398;-70
2023/06/11 05:17:05;;;;;;;;;;;;;;;22.25;21.35;102116.09;5054948;28;19927;-69
2023/06/11 05:19:31;;;;;;;;;;;;;;;22.28;21.70;102117.53;5072945;28;19965;-69
2023/06/11 05:21:56;;;;;;;;;;;;;;;22.25;21.07;102113.34;5072802;28;19912;-69
2023/06/11 05:24:28;;;;;;;;;;;;;;;22.27;21.23;102115.84;5069928;28;19924;-69
2023/06/11 05:26:54;;;;;;;;;;;;;;;22.34;21.04;102113.88;5051407;28;19913;-69
2023/06/11 05:29:20;;;;;;;;;;;;;;;22.37;20.99;102116.16;5052541;28;19921;-69
2023/06/11 05:31:45;;;;;;;;;;;;;;;22.34;21.29;102116.59;5051300;28;19963;-69
2023/06/11 05:34:11;;;;;;;;;;;;;;;22.16;23.00;102117.47;5052494;28;19993;-69
2023/06/11 05:36:37;;;;;;;;;;;;;;;22.15;23.11;102129.47;5052377;28;20540;-68
2023/06/11 05:39:02;;;;;;;;;;;;;;;22.20;22.45;102124.16;5052413;28;20011;-69
2023/06/11 05:41:27;;;;;;;;;;;;;;;22.20;22.33;102122.22;5052570;28;19919;-69
2023/06/11 05:43:53;;;;;;;;;;;;;;;22.26;22.16;102125.97;5051232;28;20334;-68
2023/06/11 05:46:18;;;;;;;;;;;;;;;22.30;22.20;102124.44;5052554;28;19931;-69
2023/06/11 05:48:43;;;;;;;;;;;;;;;22.28;22.41;102125.75;5032384;28;19917;-68
2023/06/11 05:51:09;;;;;;;;;;;;;;;22.36;22.42;102126.28;5032132;28;20376;-68
2023/06/11 05:53:34;;;;;;;;;;;;;;;22.37;22.25;102127.09;5014285;28;19920;-67
2023/06/11 05:56:03;;;;;;;;;;;;;;;22.41;22.22;102123.66;5032180;28;19967;-68
2023/06/11 05:58:33;;;;;;;;;;;;;;;22.44;22.96;102124.28;4994762;28;19926;-68
2023/06/11 06:01:01;;;;;;;;;;;;;;;22.36;22.45;102123.53;5011759;28;20314;-68
2023/06/11 06:03:26;;;;;;;;;;;;;;;22.50;21.87;102121.44;5012644;28;19921;-68
2023/06/11 06:05:51;;;;;;;;;;;;;;;22.56;21.95;102115.00;5032314;28;19917;-68
2023/06/11 06:08:16;;;;;;;;;;;;;;;22.62;22.28;102113.25;5032314;28;19913;-68
2023/06/11 06:10:42;;;;;;;;;;;;;;;22.66;21.60;102116.34;5051874;28;20381;-68
2023/06/11 06:13:07;;;;;;;;;;;;;;;22.70;22.11;102112.91;5052183;28;19913;-68
2023/06/11 06:15:32;;;;;;;;;;;;;;;22.74;22.39;102108.63;5052139;28;19956;-68
2023/06/11 06:17:58;;;;;;;;;;;;;;;22.75;22.32;102113.06;5052109;28;19912;-68
2023/06/11 06:20:23;;;;;;;;;;;;;;;22.76;22.32;102108.41;5049696;28;19912;-68
2023/06/11 06:22:48;;;;;;;;;;;;;;;22.82;22.03;102112.94;5032956;28;19919;-69
2023/06/11 06:25:15;;;;;;;;;;;;;;;22.89;22.01;102107.34;5034912;28;19920;-69
2023/06/11 06:27:41;;;;;;;;;;;;;;;22.79;22.13;102106.03;5036550;28;19929;-68
2023/06/11 06:30:06;;;;;;;;;;;;;;;22.88;21.76;102102.94;5035939;28;20309;-69
2023/06/11 06:32:34;;;;;;;;;;;;;;;22.91;21.64;102108.78;5034768;28;20262;-70
2023/06/11 06:34:59;;;;;;;;;;;;;;;22.99;21.40;102104.84;5035604;28;19920;-69
2023/06/11 06:37:27;;;;;;;;;;;;;;;23.04;21.52;102098.72;5035733;28;19952;-69
2023/06/11 06:39:53;;;;;;;;;;;;;;;23.03;21.95;102102.47;5034203;28;19967;-69
2023/06/11 06:42:18;;;;;;;;;;;;;;;23.09;21.90;102104.31;5034542;28;19952;-69
2023/06/11 06:44:43;;;;;;;;;;;;;;;23.09;22.31;102096.94;5036051;28;19920;-69
2023/06/11 06:47:09;;;;;;;;;;;;;;;23.11;23.18;102107.66;5034465;28;19913;-69
2023/06/11 06:49:35;;;;;;;;;;;;;;;23.08;22.26;102102.63;5035952;28;19928;-70
2023/06/11 06:52:01;;;;;;;;;;;;;;;23.09;22.30;102104.31;5036085;28;19920;-70
2023/06/11 06:54:26;;;;;;;;;;;;;;;23.07;22.75;102107.28;5036062;28;20023;-70
2023/06/11 06:56:51;;;;;;;;;;;;;;;22.99;23.54;102100.22;5034102;28;19913;-70
2023/06/11 06:59:17;;;;;;;;;;;;;;;23.04;23.87;102106.94;5049920;28;19928;-68
2023/06/11 07:01:42;;;;;;;;;;;;;;;23.08;22.35;102100.72;5055672;28;19987;-69
2023/06/11 07:04:07;;;;;;;;;;;;;;;23.10;22.97;102103.22;5055047;28;20447;-69
2023/06/11 07:06:33;;;;;;;;;;;;;;;23.07;23.72;102106.44;5055202;28;19916;-68
2023/06/11 07:08:58;;;;;;;;;;;;;;;23.18;22.60;102103.72;5060598;28;20377;-69
2023/06/11 07:11:23;;;;;;;;;;;;;;;23.27;22.35;102093.25;5075229;28;20007;-69
2023/06/11 07:13:49;;;;;;;;;;;;;;;23.33;22.63;102096.94;5075302;28;19912;-69
2023/06/11 07:16:14;;;;;;;;;;;;;;;23.34;22.27;102106.81;5057247;28;19959;-69
2023/06/11 07:18:39;;;;;;;;;;;;;;;23.27;23.49;102106.94;5057251;28;19970;-69
2023/06/11 07:21:05;;;;;;;;;;;;;;;23.26;23.03;102108.00;5055151;28;19913;-69
2023/06/11 07:23:30;;;;;;;;;;;;;;;23.38;23.30;102102.50;5055188;28;19913;-68
2023/06/11 07:25:55;;;;;;;;;;;;;;;23.44;23.26;102107.06;5053855;28;19913;-68
2023/06/11 07:28:21;;;;;;;;;;;;;;;23.55;22.56;102105.34;5036944;28;19916;-69
2023/06/11 07:30:48;;;;;;;;;;;;;;;23.66;22.26;102103.66;5055004;28;19919;-69
2023/06/11 07:33:16;;;;;;;;;;;;;;;23.59;22.73;102106.56;5054592;28;19913;-70
2023/06/11 07:35:41;;;;;;;;;;;;;;;23.57;23.37;102104.06;5054677;28;20341;-70
2023/06/11 07:38:07;;;;;;;;;;;;;;;23.60;23.22;102101.91;5053595;28;19913;-70
2023/06/11 07:40:32;;;;;;;;;;;;;;;23.43;24.44;102104.56;5051580;28;19956;-70
2023/06/11 07:42:57;;;;;;;;;;;;;;;23.45;23.72;102096.91;5045140;28;19913;-71
2023/06/11 07:45:22;;;;;;;;;;;;;;;23.54;24.96;102101.78;5026487;28;19919;-70
2023/06/11 07:47:48;;;;;;;;;;;;;;;23.60;24.80;102113.69;5043558;28;20262;-70
2023/06/11 07:50:13;;;;;;;;;;;;;;;23.53;24.61;102107.50;5027237;28;20023;-70
2023/06/11 07:52:39;;;;;;;;;;;;;;;23.57;23.44;102104.06;5025499;28;19992;-71
2023/06/11 07:55:05;;;;;;;;;;;;;;;23.62;24.95;102105.22;5028808;28;19913;-70
2023/06/11 07:57:31;;;;;;;;;;;;;;;23.64;23.82;102103.91;5045070;28;19967;-70
2023/06/11 07:59:56;;;;;;;;;;;;;;;23.64;24.92;102103.06;5042963;28;19953;-70
2023/06/11 08:02:21;;;;;;;;;;;;;;;23.58;25.58;102116.69;5058668;28;19916;-71
2023/06/11 08:04:47;;;;;;;;;;;;;;;23.71;24.65;102106.53;5046915;28;20004;-70
2023/06/11 08:07:12;;;;;;;;;;;;;;;23.71;24.81;102104.59;5042901;28;19917;-70
2023/06/11 08:09:38;;;;;;;;;;;;;;;23.83;23.85;102101.91;5050780;28;19978;-70
2023/06/11 08:12:04;;;;;;;;;;;;;;;23.86;25.19;102106.06;5043841;28;19924;-70
2023/06/11 08:14:29;;;;;;;;;;;;;;;23.87;25.18;102104.97;5045621;28;19962;-70
2023/06/11 08:16:55;;;;;;;;;;;;;;;23.92;25.54;102110.56;5044715;28;19916;-69
2023/06/11 08:19:20;;;;;;;;;;;;;;;24.06;25.00;102105.63;5042964;28;19913;-70
2023/06/11 08:21:47;;;;;;;;;;;;;;;24.24;25.45;102097.22;5043319;28;19913;-70
2023/06/11 08:24:12;;;;;;;;;;;;;;;24.33;25.21;102105.88;5026686;28;20066;-70
2023/06/11 08:26:38;;;;;;;;;;;;;;;24.36;24.48;102099.88;5042296;28;20003;-70
2023/06/11 08:29:03;;;;;;;;;;;;;;;24.41;25.83;102102.72;5043268;28;19921;-70
2023/06/11 08:31:28;;;;;;;;;;;;;;;24.47;26.03;102100.91;5039202;28;19955;-70
2023/06/11 08:33:54;;;;;;;;;;;;;;;24.60;24.82;102103.38;5023203;28;19924;-69
2023/06/11 08:36:22;;;;;;;;;;;;;;;24.67;24.96;102100.47;5052320;28;20057;-70
2023/06/11 08:38:48;;;;;;;;;;;;;;;24.72;24.43;102087.66;5053690;28;19913;-70
2023/06/11 08:41:14;;;;;;;;;;;;;;;24.74;24.59;102092.91;5035937;28;20317;-70
2023/06/11 08:43:40;;;;;;;;;;;;;;;24.77;24.82;102091.56;5035679;28;19980;-70
2023/06/11 08:46:12;;;;;;;;;;;;;;;24.85;24.88;102097.50;5052539;28;19974;-69
2023/06/11 08:48:40;;;;;;;;;;;;;;;24.99;25.45;102089.72;5053814;28;20338;-69
2023/06/11 08:51:08;;;;;;;;;;;;;;;24.84;26.65;102097.72;5053418;28;20345;-70
2023/06/11 08:53:34;;;;;;;;;;;;;;;24.85;25.69;102085.66;5034943;28;19975;-70
2023/06/11 08:55:59;;;;;;;;;;;;;;;24.93;25.81;102098.97;5035173;28;19916;-70
2023/06/11 08:58:25;;;;;;;;;;;;;;;25.01;25.76;102089.47;5031658;28;20011;-70
2023/06/11 09:00:50;;;;;;;;;;;;;;;25.05;25.86;102083.22;5032187;28;19913;-70
2023/06/11 09:03:16;;;;;;;;;;;;;;;25.23;25.00;102084.03;5032903;28;20279;-70
2023/06/11 09:05:43;;;;;;;;;;;;;;;25.32;26.20;102084.47;5031972;28;20411;-70
2023/06/11 09:08:08;;;;;;;;;;;;;;;25.40;25.05;102076.59;5031825;28;19919;-71
2023/06/11 09:10:34;;;;;;;;;;;;;;;25.57;24.97;102076.56;5038538;28;20003;-70
2023/06/11 09:13:00;;;;;;;;;;;;;;;25.76;24.48;102073.47;5033210;28;20380;-70
2023/06/11 09:15:25;;;;;;;;;;;;;;;25.82;24.90;102070.53;5033495;28;20297;-71
2023/06/11 09:17:51;;;;;;;;;;;;;;;25.74;25.07;102072.91;5033332;28;20062;-72
2023/06/11 09:20:18;;;;;;;;;;;;;;;25.87;24.91;102067.88;5015312;28;19963;-71
2023/06/11 09:22:44;;;;;;;;;;;;;;;26.04;24.86;102061.47;5032748;28;20306;-71
2023/06/11 09:25:10;;;;;;;;;;;;;;;26.00;24.39;102055.66;5031464;28;19919;-70
2023/06/11 09:27:36;;;;;;;;;;;;;;;26.09;24.88;102053.25;5032665;28;19983;-70
2023/06/11 09:30:11;;;;;;;;;;;;;;;26.16;24.43;102053.88;5032634;28;19921;-70
2023/06/11 09:32:38;;;;;;;;;;;;;;;26.23;24.33;102048.16;5032447;28;19920;-70
2023/06/11 09:35:05;;;;;;;;;;;;;;;26.31;24.18;102047.69;5014816;28;20255;-71
2023/06/11 09:37:31;;;;;;;;;;;;;;;26.36;24.16;102050.50;5032675;28;20004;-71
2023/06/11 09:39:57;;;;;;;;;;;;;;;26.35;24.36;102046.06;5031402;28;19913;-70
2023/06/11 09:42:24;;;;;;;;;;;;;;;26.43;24.16;102039.28;5032181;28;20405;-69
2023/06/11 09:44:49;;;;;;;;;;;;;;;26.50;24.16;102041.78;5032523;28;20020;-69
2023/06/11 09:47:15;;;;;;;;;;;;;;;26.53;24.47;102041.28;5032580;28;19920;-70
2023/06/11 09:49:40;;;;;;;;;;;;;;;26.62;23.74;102043.31;5032419;28;20016;-69
2023/06/11 09:52:06;;;;;;;;;;;;;;;26.81;23.95;102031.88;5032447;28;19913;-69
2023/06/11 09:54:32;;;;;;;;;;;;;;;26.94;23.62;102039.69;5031194;28;19924;-68
2023/06/11 09:56:57;;;;;;;;;;;;;;;27.05;24.29;102032.31;5030945;28;19978;-69
2023/06/11 09:59:23;;;;;;;;;;;;;;;27.04;24.35;102039.75;5047447;28;20565;-69
2023/06/11 10:01:49;;;;;;;;;;;;;;;27.06;24.14;102024.84;5051350;28;19966;-72
2023/06/11 10:04:14;;;;;;;;;;;;;;;27.21;24.56;102025.78;5051667;28;19912;-72
2023/06/11 10:06:44;;;;;;;;;;;;;;;27.47;23.34;102025.09;5042163;28;19916;-72
2023/06/11 10:09:12;;;;;;;;;;;;;;;27.53;23.86;102019.31;5053922;28;19924;-70
2023/06/11 10:11:39;;;;;;;;;;;;;;;27.67;24.14;102021.56;5072242;28;19916;-70
2023/06/11 10:14:05;;;;;;;;;;;;;;;27.81;23.31;102017.22;5072146;28;20380;-69
2023/06/11 10:16:33;;;;;;;;;;;;;;;27.99;23.08;102007.63;5072113;28;20042;-70
2023/06/11 10:19:08;;;;;;;;;;;;;;;28.06;23.39;102010.09;5072333;28;19913;-70
2023/06/11 10:21:36;;;;;;;;;;;;;;;28.11;23.14;102001.81;5071857;28;19981;-70
2023/06/11 10:24:02;;;;;;;;;;;;;;;28.20;23.39;102005.72;5071795;28;20453;-70
2023/06/11 10:26:34;;;;;;;;;;;;;;;28.60;22.86;102003.22;5054070;28;19954;-70
2023/06/11 10:29:00;;;;;;;;;;;;;;;28.80;22.64;101997.66;5060045;28;19917;-70
2023/06/11 10:31:26;;;;;;;;;;;;;;;29.06;22.40;102000.38;5033424;28;20397;-70
2023/06/11 10:33:51;;;;;;;;;;;;;;;29.14;22.48;101994.28;5024318;28;20030;-70
2023/06/11 10:36:24;;;;;;;;;;;;;;;29.47;22.41;102003.00;5043809;28;19913;-71
2023/06/11 10:38:51;;;;;;;;;;;;;;;29.54;22.03;102003.53;5025936;28;19913;-70
2023/06/11 10:41:26;;;;;;;;;;;;;;;29.61;21.84;101997.69;5042298;28;20342;-70
2023/06/11 10:43:52;;;;;;;;;;;;;;;29.91;21.98;101994.75;5025310;28;19921;-69
2023/06/11 10:46:18;;;;;;;;;;;;;;;30.02;21.60;101997.47;5041564;28;19935;-68
2023/06/11 10:48:49;;;;;;;;;;;;;;;30.04;21.45;101998.81;5040979;28;20579;-70
2023/06/11 10:51:15;;;;;;;;;;;;;;;30.03;21.70;101990.78;5024617;28;19913;-70
2023/06/11 10:53:41;;;;;;;;;;;;;;;30.10;21.96;101999.63;5041635;28;19919;-70
2023/06/11 10:56:06;;;;;;;;;;;;;;;30.06;21.53;102001.31;5040490;28;20007;-70
2023/06/11 10:58:32;;;;;;;;;;;;;;;30.22;21.78;101994.53;5042068;28;19924;-69
2023/06/11 11:00:58;;;;;;;;;;;;;;;30.30;21.60;101993.91;5005862;28;20000;-68
2023/06/11 11:03:25;;;;;;;;;;;;;;;30.46;21.74;102002.97;5047746;28;20371;-68
2023/06/11 11:05:50;;;;;;;;;;;;;;;30.42;21.54;102001.91;5033779;28;20326;-69
2023/06/11 11:08:16;;;;;;;;;;;;;;;30.68;21.94;101991.38;5051977;28;20003;-70
2023/06/11 11:10:42;;;;;;;;;;;;;;;30.87;21.22;101985.91;5074658;28;20396;-70
2023/06/11 11:13:07;;;;;;;;;;;;;;;30.96;21.38;101985.28;5057310;28;20284;-69
2023/06/11 11:15:32;;;;;;;;;;;;;;;31.13;21.63;101985.66;5075194;28;19912;-70
2023/06/11 11:17:58;;;;;;;;;;;;;;;31.38;20.87;101992.00;5057188;28;20254;-70
2023/06/11 11:20:23;;;;;;;;;;;;;;;31.34;21.07;101996.50;5075075;28;19998;-70
2023/06/11 11:22:51;;;;;;;;;;;;;;;31.29;21.31;101986.25;5057226;28;19913;-71
2023/06/11 11:25:20;;;;;;;;;;;;;;;31.38;21.03;101987.25;5062694;28;19913;-71
2023/06/11 11:27:45;;;;;;;;;;;;;;;31.45;20.90;101987.72;5037591;28;20404;-72
2023/06/11 11:30:11;;;;;;;;;;;;;;;31.46;20.75;101985.75;5055179;28;19942;-71
2023/06/11 11:32:36;;;;;;;;;;;;;;;31.49;20.66;101982.44;5055182;28;19920;-72
2023/06/11 11:35:03;;;;;;;;;;;;;;;31.64;20.76;101979.44;5054924;28;20381;-71
2023/06/11 11:37:29;;;;;;;;;;;;;;;31.74;20.45;101983.19;5054853;28;19921;-71
2023/06/11 11:39:54;;;;;;;;;;;;;;;31.67;20.10;101977.16;5054984;28;19958;-71
2023/06/11 11:42:20;;;;;;;;;;;;;;;31.94;19.67;101970.94;5037067;28;19913;-70
2023/06/11 11:44:46;;;;;;;;;;;;;;;31.98;19.95;101969.19;5054882;28;20007;-72
2023/06/11 11:47:11;;;;;;;;;;;;;;;32.06;19.92;101984.38;5055041;28;20015;-70
2023/06/11 11:49:37;;;;;;;;;;;;;;;31.94;19.78;101977.31;5054717;28;19917;-71
2023/06/11 11:52:03;;;;;;;;;;;;;;;32.13;19.57;101969.00;5054748;28;19966;-72
2023/06/11 11:54:29;;;;;;;;;;;;;;;32.31;19.89;101966.47;5054825;28;19920;-71
2023/06/11 11:57:06;;;;;;;;;;;;;;;32.76;19.27;101963.97;5036610;28;19913;-70
2023/06/11 11:59:37;;;;;;;;;;;;;;;32.95;18.34;101964.72;5054393;28;19974;-71
2023/06/11 12:02:04;;;;;;;;;;;;;;;33.30;18.98;101958.72;5053357;28;20423;-71
2023/06/11 12:04:37;;;;;;;;;;;;;;;33.71;18.40;101949.47;5054319;28;19948;-71
2023/06/11 12:07:06;;;;;;;;;;;;;;;33.93;18.25;101954.22;5054206;28;20242;-71
2023/06/11 12:09:32;;;;;;;;;;;;;;;34.01;17.77;101956.25;5064317;28;20305;-71
2023/06/11 12:11:57;;;;;;;;;;;;;;;34.04;17.45;101958.41;5074430;28;19939;-71
2023/06/11 12:14:23;;;;;;;;;;;;;;;34.03;17.48;101950.38;5074361;28;20388;-71
2023/06/11 12:16:48;;;;;;;;;;;;;;;33.92;17.08;101958.97;5073946;28;20425;-72
2023/06/11 12:19:15;;;;;;;;;;;;;;;33.93;16.93;101948.66;5074275;28;19962;-71
2023/06/11 12:21:41;;;;;;;;;;;;;;;33.98;16.81;101953.28;5061043;28;19999;-71
2023/06/11 12:24:09;;;;;;;;;;;;;;;34.12;17.55;101952.06;5054262;28;19996;-72
2023/06/11 12:26:34;;;;;;;;;;;;;;;34.47;16.55;101957.03;5036548;28;19912;-71
2023/06/11 12:29:00;;;;;;;;;;;;;;;33.96;16.13;101953.59;5054603;28;19924;-71
2023/06/11 12:31:25;;;;;;;;;;;;;;;34.21;16.29;101940.97;5053795;28;19913;-71